Hensley, Arkansas
Current Conditions -  °F | °C
As of 11:53 AM on Monday 26 Jan 2015 (Local Time) from KLIT Reporting Station
Clear Clear  
Wind Chill: 53°   Ceiling: Unl
Heat Index: 53°   Visibility: 10mi
Dew Point: 29°   Wind: 7mph
Humidity: 40%   Direction: 250°WSW
Pressure: 30.13"   Gusts: NA
Location:  34.51°N, 92.21°W
Report Text: KLIT 261753Z 25006KT 10SM CLR 12/M02 A3013 RMK AO2 SLP204 FU VSB DSNT S T01171017 10117 20011 58007
Loading
Personal Weather Stations






























Interactive Weather Map New forecast layout! Learn more

10-Day Weather Forecast

Advertisements
Track Severe Weather on mobile